Latest Weather Observations for Mackay

IDQ60801

Issued at 1:43 pm EST Thursday 25 April 2024 (issued every 10 minutes, with the page automatically refreshed every 10 minutes)

About weather observations | Map of weather stations | Latest weather observations for QLD | Other Formats
Station Details ID: 033119 Name: MACKAY M.O Lat: -21.12 Lon: 149.22 Height: 30.26 m
Data from the previous 72 hours. | See also: Recent months at Mackay
Date/Time
EST
Temp
°C
App
Temp
°C
Dew
Point
°C
Rel
Hum
%
Delta-T
°C
Wind Press
QNH
hPa
Press
MSL
hPa
Rain since
9am
mm
Dir  Spd
km/h
Gust
km/h
Spd
kts
Gust
kts
25/01:30pm 26.0 27.6 22.1 79 2.6 SSE 17 24 9 13 1014.3 1014.2 0.0
25/01:00pm 26.4 28.4 22.3 78 2.8 SSE 15 26 8 14 1014.6 1014.5 0.0
25/12:30pm 25.9 28.3 21.6 77 2.9 SE 11 17 6 9 1015.2 1015.1 0.0
25/12:00pm 25.8 27.4 21.5 77 2.9 SSE 15 24 8 13 1015.7 1015.6 0.0
25/11:30am 25.1 26.7 20.8 77 2.8 SE 13 22 7 12 1016.3 1016.2 0.0
25/11:00am 25.6 26.9 21.7 79 2.6 SSE 17 26 9 14 1016.4 1016.3 0.0
25/10:30am 25.2 26.4 21.5 80 2.5 SSE 17 28 9 15 1016.7 1016.6 0.0
25/10:00am 24.9 25.9 21.0 79 2.6 SSE 17 26 9 14 1017.0 1016.8 0.0
25/09:30am 24.5 25.4 20.8 80 2.4 SSE 17 26 9 14 1016.7 1016.6 0.0
25/09:00am 23.3 24.9 20.8 86 1.6 S 13 17 7 9 1016.7 1016.6 0.0
25/08:30am 22.2 23.3 19.7 86 1.6 S 13 20 7 11 1016.5 1016.4 0.0
25/08:00am 21.8 22.9 19.7 88 1.3 SSW 13 17 7 9 1016.3 1016.2 0.0
25/07:30am 20.0 20.6 18.5 91 0.9 SSW 13 17 7 9 1015.8 1015.7 0.0
25/07:00am 18.6 19.2 17.6 94 0.6 SW 11 17 6 9 1015.8 1015.7 0.0
25/06:30am 18.3 18.3 17.3 94 0.6 SW 13 17 7 9 1015.4 1015.3 0.0
25/06:00am 18.6 18.9 17.8 95 0.5 SW 13 15 7 8 1015.0 1014.9 0.0
25/05:30am 18.6 18.9 17.8 95 0.5 SSW 13 17 7 9 1014.9 1014.8 0.0
25/05:00am 18.8 19.1 17.8 94 0.6 SW 13 17 7 9 1014.7 1014.6 0.0
25/04:30am 19.1 19.5 18.1 94 0.6 SW 13 17 7 9 1014.6 1014.5 0.0
25/04:00am 19.0 19.3 17.8 93 0.7 SW 13 17 7 9 1014.7 1014.6 0.0
25/03:30am 19.1 19.4 17.8 92 0.8 SW 13 19 7 10 1014.7 1014.6 0.0
25/03:00am 19.0 19.2 17.7 92 0.8 SW 13 19 7 10 1014.7 1014.6 0.0
25/02:30am 18.9 19.1 17.7 93 0.7 SW 13 19 7 10 1014.9 1014.8 0.0
25/02:00am 19.0 19.6 17.8 93 0.7 SW 11 13 6 7 1015.3 1015.2 0.0
25/01:30am 19.4 19.7 17.9 91 0.9 SW 13 17 7 9 1015.4 1015.3 0.0
25/01:00am 19.3 19.5 17.6 90 1.0 SW 13 15 7 8 1015.7 1015.6 0.0
25/12:30am 19.5 20.1 17.6 89 1.2 SW 11 15 6 8 1015.9 1015.8 0.0
25/12:00am 19.9 20.6 18.0 89 1.2 SW 11 15 6 8 1016.2 1016.1 0.0
 
Date/Time
EST
Temp
°C
App
Temp
°C
Dew
Point
°C
Rel
Hum
%
Delta-T
°C
Wind Press
QNH
hPa
Press
MSL
hPa
Rain since
9am
mm
Dir  Spd
km/h
Gust
km/h
Spd
kts
Gust
kts
24/11:30pm 19.9 20.7 18.2 90 1.1 SW 11 13 6 7 1016.5 1016.4 0.0
24/11:00pm 20.4 21.3 18.5 89 1.2 SW 11 13 6 7 1016.7 1016.6 0.0
24/10:30pm 20.7 21.7 18.6 88 1.3 SW 11 13 6 7 1017.1 1016.9 0.0
24/10:00pm 20.9 22.4 18.8 88 1.3 SW 9 11 5 6 1017.1 1016.9 0.0
24/09:30pm 21.6 23.3 19.3 87 1.5 S 9 11 5 6 1017.2 1017.0 0.0
24/09:00pm 22.8 24.6 19.6 82 2.0 SSE 9 15 5 8 1017.1 1016.9 0.0
24/08:30pm 22.6 24.3 19.4 82 2.0 SSE 9 13 5 7 1017.0 1016.8 0.0
24/08:00pm 22.8 24.4 19.2 80 2.3 SE 9 13 5 7 1016.7 1016.6 0.0
24/07:30pm 23.0 24.3 18.5 76 2.8 SE 9 13 5 7 1016.5 1016.4 0.0
24/07:00pm 23.1 24.5 18.6 76 2.8 SE 9 17 5 9 1016.2 1016.1 0.0
24/06:30pm 23.1 24.2 18.8 77 2.7 SE 11 17 6 9 1016.0 1015.9 0.0
24/06:00pm 23.3 24.3 18.6 75 3.0 SE 11 19 6 10 1015.6 1015.5 0.0
24/05:30pm 23.7 24.5 19.0 75 3.0 SE 13 20 7 11 1015.5 1015.4 0.0
24/05:00pm 24.2 24.6 19.1 73 3.3 SE 15 20 8 11 1015.4 1015.3 0.0
24/04:30pm 24.6 25.2 19.4 73 3.3 SE 15 22 8 12 1015.0 1014.9 0.0
24/04:00pm 24.8 25.5 19.6 73 3.3 SE 15 24 8 13 1014.9 1014.8 0.0
24/03:30pm 25.3 26.2 20.1 73 3.4 SE 15 24 8 13 1015.0 1014.9 0.0
24/03:00pm 25.5 26.1 20.3 73 3.4 SE 17 24 9 13 1015.2 1015.1 0.0
24/02:30pm 25.8 27.3 20.6 73 3.4 SE 13 24 7 13 1015.5 1015.4 0.0
24/02:00pm 25.6 26.3 20.4 73 3.4 SE 17 26 9 14 1015.7 1015.6 0.0
24/01:30pm 25.7 26.3 20.3 72 3.5 SE 17 28 9 15 1015.9 1015.8 0.0
24/01:00pm 26.4 27.7 20.9 72 3.6 SSE 15 30 8 16 1016.2 1016.1 0.0
24/12:30pm 26.4 27.2 20.7 71 3.8 SSE 17 26 9 14 1016.7 1016.6 0.0
24/12:00pm 25.6 25.8 20.6 74 3.3 SSE 20 32 11 17 1017.1 1016.9 0.0
24/11:30am 26.0 25.9 19.9 69 4.0 SSE 20 33 11 18 1017.5 1017.3 0.0
24/11:00am 25.8 25.5 20.4 72 3.5 SSE 22 39 12 21 1017.9 1017.7 0.0
24/10:30am 25.1 24.9 19.7 72 3.5 SSE 20 32 11 17 1018.2 1018.0 0.0
24/10:00am 24.9 24.7 19.7 73 3.4 SSE 20 35 11 19 1018.5 1018.3 0.0
24/09:30am 24.6 24.5 18.8 70 3.7 S 17 30 9 16 1018.1 1017.9 0.0
24/09:00am 23.9 23.4 19.0 74 3.1 S 20 30 11 16 1017.9 1017.7 -
24/08:30am 22.9 22.2 18.7 77 2.7 S 20 37 11 20 1017.6 1017.4 -
24/08:00am 21.8 21.4 18.8 83 1.9 S 19 24 10 13 1017.2 1017.0 -
24/07:30am 21.2 20.6 18.8 86 1.5 S 20 32 11 17 1016.9 1016.7 -
24/07:00am 20.7 20.0 18.6 88 1.3 S 20 33 11 18 1016.5 1016.4 -
24/06:30am 20.5 19.9 18.8 90 1.1 S 20 30 11 16 1016.1 1016.0 -
24/06:00am 20.4 19.8 18.5 89 1.2 S 19 28 10 15 1015.9 1015.8 -
24/05:30am 20.4 19.7 18.7 90 1.1 S 20 26 11 14 1015.8 1015.7 -
24/05:00am 20.1 20.3 18.6 91 0.9 S 15 20 8 11 1015.8 1015.7 -
24/04:30am 20.1 20.3 18.6 91 0.9 S 15 20 8 11 1015.7 1015.6 -
24/04:00am 20.4 21.1 18.9 91 0.9 SSW 13 20 7 11 1015.8 1015.7 -
24/03:30am 21.1 21.3 19.4 90 1.1 S 17 26 9 14 1015.7 1015.6 -
24/03:00am 21.2 21.8 19.5 90 1.1 S 15 20 8 11 1015.7 1015.6 0.0
24/02:30am 21.6 21.9 19.5 88 1.3 S 17 24 9 13 1016.0 1015.9 -
24/02:00am 21.7 22.0 19.6 88 1.3 S 17 26 9 14 1016.2 1016.1 -
24/01:30am 22.0 22.0 19.7 87 1.5 S 19 28 10 15 1016.7 1016.6 -
24/01:00am 22.0 22.1 19.9 88 1.3 S 19 28 10 15 1016.9 1016.7 -
24/12:30am 22.1 22.0 19.6 86 1.6 S 19 26 10 14 1017.2 1017.0 -
24/12:00am 22.3 22.2 19.5 84 1.8 S 19 24 10 13 1017.3 1017.1 -
 
Date/Time
EST
Temp
°C
App
Temp
°C
Dew
Point
°C
Rel
Hum
%
Delta-T
°C
Wind Press
QNH
hPa
Press
MSL
hPa
Rain since
9am
mm
Dir  Spd
km/h
Gust
km/h
Spd
kts
Gust
kts
23/11:30pm 22.8 22.4 19.4 81 2.2 S 20 33 11 18 1017.4 1017.2 -
23/11:00pm 23.5 22.8 19.6 79 2.5 SSE 22 35 12 19 1017.5 1017.3 -
23/10:30pm 23.7 23.2 19.0 75 3.0 SSE 20 33 11 18 1017.7 1017.5 -
23/10:00pm 23.6 23.1 19.1 76 2.9 SSE 20 33 11 18 1017.7 1017.5 -
23/09:30pm 23.8 23.3 19.1 75 3.0 SSE 20 33 11 18 1018.0 1017.8 -
23/09:00pm 24.0 23.4 18.9 73 3.2 SE 20 32 11 17 1017.9 1017.7 0.0
23/08:30pm 24.1 23.6 19.0 73 3.2 SE 20 35 11 19 1017.9 1017.7 -
23/08:00pm 24.1 23.8 19.2 74 3.1 SE 19 33 10 18 1017.6 1017.4 -
23/07:30pm 24.2 24.0 19.3 74 3.1 SE 19 33 10 18 1017.5 1017.3 -
23/07:00pm 24.3 23.7 18.9 72 3.4 SE 20 35 11 19 1017.0 1016.8 -
23/06:30pm 24.2 23.2 18.8 72 3.4 SE 22 35 12 19 1016.5 1016.4 -
23/06:00pm 24.2 23.6 18.8 72 3.4 SE 20 35 11 19 1016.1 1016.0 -
23/05:30pm 24.3 22.8 18.5 70 3.7 SE 24 35 13 19 1015.9 1015.8 -
23/05:00pm 24.6 23.5 19.4 73 3.3 SE 24 39 13 21 1015.8 1015.7 -
23/04:30pm 25.1 23.9 19.2 70 3.8 SE 24 37 13 20 1015.6 1015.5 -
23/04:00pm 25.6 24.5 19.5 69 3.9 SSE 24 39 13 21 1015.6 1015.5 -
23/03:30pm 26.0 25.2 20.1 70 3.8 SSE 24 41 13 22 1015.6 1015.5 -
23/03:00pm 25.9 24.8 19.5 68 4.1 SSE 24 43 13 23 1015.7 1015.6 -
23/02:30pm 26.0 24.7 19.9 69 4.0 SSE 26 46 14 25 1015.9 1015.8 -
23/02:00pm 25.4 23.8 19.3 69 3.9 SSE 26 43 14 23 1016.2 1016.1 -
23/01:30pm 25.6 23.9 19.9 70 3.7 SE 28 43 15 23 1016.3 1016.2 -
23/01:00pm 25.3 23.9 20.5 75 3.1 SSE 28 43 15 23 1016.3 1016.2 -
23/12:30pm 25.4 24.8 20.6 75 3.1 SSE 24 43 13 23 1017.0 1016.8 -
23/12:00pm 25.5 24.2 20.7 75 3.1 SSE 28 46 15 25 1017.5 1017.3 -
23/11:51am 25.5 24.4 21.0 76 3.0 SSE 28 46 15 25 1017.7 1017.5 -
23/11:30am 24.9 23.3 20.8 78 2.7 SSE 30 43 16 23 1017.8 1017.6 -
23/11:18am 24.5 22.9 20.0 76 2.9 SSE 28 46 15 25 1018.0 1017.8 -
23/10:32am 22.9 21.5 20.4 86 1.6 S 28 41 15 22 1018.5 1018.3 0.0
23/10:30am 22.8 21.3 20.3 86 1.6 S 28 41 15 22 1018.5 1018.3 0.0
23/10:10am 23.4 20.7 17.6 70 3.6 S 28 46 15 25 1018.6 1018.4 0.0
23/10:02am 23.2 21.8 20.5 85 1.8 S 28 44 15 24 1018.7 1018.5 0.0
23/10:00am 23.2 21.4 20.3 84 1.9 S 30 44 16 24 1018.7 1018.5 0.0
23/09:35am 23.2 - - - - SSE 24 43 13 23 1018.6 1018.4 0.0
23/09:30am 23.1 - - - - SSE 28 44 15 24 1018.5 1018.3 0.0
23/09:19am 23.5 - - - - SSE 26 39 14 21 1018.3 1018.1 0.0
23/09:05am 22.9 - - - - SSE 26 41 14 22 1018.2 1018.0 0.0
23/09:00am 22.9 - - - - SSE 28 46 15 25 1018.2 1018.0 9.8
23/08:53am 22.7 - - - - S 28 46 15 25 1018.1 1017.9 9.8
23/08:30am 22.0 - - - - S 26 39 14 21 1017.8 1017.6 9.8
23/08:04am 21.6 - - - - SSE 24 39 13 21 1017.6 1017.4 9.8
23/08:03am 21.5 - - - - S 24 39 13 21 1017.6 1017.4 9.8
23/08:00am 21.5 - - - - S 24 33 13 18 1017.7 1017.5 9.8
23/07:49am 21.6 - - - - S 24 39 13 21 1017.6 1017.4 9.8
23/07:30am 21.1 - - - - S 20 32 11 17 1017.4 1017.2 9.8
23/07:00am 20.8 - - - - S 24 39 13 21 1016.7 1016.6 9.8
23/06:30am 20.4 - - - - S 24 35 13 19 1016.4 1016.3 9.8
23/06:00am 20.5 - - - - S 24 33 13 18 1016.1 1016.0 9.8
23/05:30am 20.6 - - - - S 22 32 12 17 1015.8 1015.7 9.8
23/05:00am 20.8 - - - - S 22 32 12 17 1015.7 1015.6 9.8
23/04:30am 21.7 - - - - SSE 24 39 13 21 1015.6 1015.5 9.6
23/04:02am 21.8 - - - - SSE 28 50 15 27 1015.5 1015.4 9.6
23/04:00am 21.9 - - - - SSE 26 50 14 27 1015.6 1015.5 9.6
23/03:55am 21.7 - - - - SSE 28 50 15 27 1015.4 1015.3 9.6
23/03:38am 21.4 - - - - SSE 26 44 14 24 1015.1 1015.0 9.6
23/03:30am 21.1 - - - - SSE 28 44 15 24 1015.2 1015.1 9.6
23/03:27am 21.3 - - - - SSE 26 43 14 23 1015.3 1015.2 9.6
23/03:00am 22.2 - - - - SSE 28 46 15 25 1015.2 1015.1 8.8
23/02:57am 22.1 - - - - SSE 28 46 15 25 1015.2 1015.1 8.8
23/02:30am 21.8 - - - - SSE 30 46 16 25 1015.4 1015.3 8.8
23/02:00am 21.5 - - - - SSE 26 43 14 23 1015.7 1015.6 8.8
23/01:56am 21.6 - - - - SSE 24 41 13 22 1015.8 1015.7 8.8
23/01:34am 21.5 - - - - SSE 28 46 15 25 1016.2 1016.1 8.6
23/01:33am 21.6 - - - - SSE 26 46 14 25 1016.2 1016.1 8.6
23/01:30am 21.8 - - - - SSE 24 44 13 24 1016.3 1016.2 8.6
23/01:00am 21.6 - - - - SSE 26 41 14 22 1016.4 1016.3 5.2
23/12:38am 21.7 - - - - SSE 28 46 15 25 1016.4 1016.3 4.6
23/12:30am 21.8 - - - - SE 26 44 14 24 1016.6 1016.5 4.6
23/12:00am 23.2 - - - - SSE 28 46 15 25 1016.4 1016.3 1.4
 
Date/Time
EST
Temp
°C
App
Temp
°C
Dew
Point
°C
Rel
Hum
%
Delta-T
°C
Wind Press
QNH
hPa
Press
MSL
hPa
Rain since
9am
mm
Dir  Spd
km/h
Gust
km/h
Spd
kts
Gust
kts
22/11:33pm 23.4 - - - - SSE 30 48 16 26 1016.4 1016.3 1.4
22/11:30pm 23.7 - - - - SSE 30 46 16 25 1016.4 1016.3 1.4
22/11:00pm 23.9 - - - - SSE 32 54 17 29 1016.4 1016.3 1.4
22/10:32pm 24.0 - - - - SSE 32 54 17 29 1016.4 1016.3 1.4
22/10:30pm 24.0 - - - - SSE 32 46 17 25 1016.5 1016.4 1.4
22/10:00pm 23.1 - - - - SSE 32 54 17 29 1016.9 1016.7 1.4
22/09:38pm 23.5 - - - - SSE 32 50 17 27 1017.0 1016.8 1.4
22/09:30pm 24.1 - - - - SSE 32 46 17 25 1016.6 1016.5 1.4
22/09:03pm 24.2 - - - - SSE 32 50 17 27 1016.6 1016.5 1.4
22/09:00pm 24.3 - - - - SSE 33 50 18 27 1016.6 1016.5 1.4
22/08:30pm 24.3 - - - - SSE 30 50 16 27 1016.6 1016.5 1.4
22/08:00pm 24.0 - - - - SSE 33 54 18 29 1016.1 1016.0 1.4
22/07:53pm 23.8 - - - - SSE 28 46 15 25 1016.0 1015.9 1.4
22/07:30pm 23.4 - - - - SE 26 39 14 21 1015.8 1015.7 1.4
22/07:09pm 23.6 - - - - SSE 28 46 15 25 1015.5 1015.4 1.0
22/07:00pm 22.7 - - - - SSE 24 41 13 22 1015.4 1015.3 1.0
22/06:36pm 22.5 - - - - SE 28 50 15 27 1015.3 1015.2 1.0
22/06:30pm 23.1 - - - - SSE 24 46 13 25 1015.1 1015.0 0.8
22/06:05pm 23.7 - - - - SSE 30 48 16 26 1015.0 1014.9 0.6
22/06:00pm 23.3 - - - - SSE 28 43 15 23 1014.9 1014.8 0.6
22/05:30pm 22.4 - - - - SSE 30 48 16 26 1015.0 1014.9 0.6
22/05:00pm 22.3 - - - - SSE 30 48 16 26 1014.8 1014.7 0.4
22/04:42pm 22.2 - - - - SSE 28 48 15 26 1014.7 1014.6 0.4
22/04:30pm 23.0 - - - - SE 24 44 13 24 1014.6 1014.5 0.0
22/04:00pm 24.7 - - - - SSE 32 56 17 30 1014.0 1013.9 0.0
22/03:30pm 25.0 - - - - SSE 32 50 17 27 1013.9 1013.8 0.0
22/03:05pm 25.8 - - - - SSE 28 46 15 25 1014.0 1013.9 0.0
22/03:00pm 25.6 - - - - SSE 28 44 15 24 1014.0 1013.9 0.0
22/02:30pm 24.8 - - - - SSE 28 46 15 25 1014.0 1013.9 0.0
22/02:00pm 24.6 - - - - SSE 30 52 16 28 1013.9 1013.8 0.0

Other formats

Comma delimited format used in spreadsheet applications
http://www.bom.gov.au/fwo/IDQ60801/IDQ60801.94367.axf

JavaScript Object Notation format (JSON) in row-major order
http://www.bom.gov.au/fwo/IDQ60801/IDQ60801.94367.json

Data quality

Most of these data are generated automatically and are frequently updated. Quality checks on data are not normally performed. It is possible for incorrect values to appear. Refer to information at About Latest Weather Observations and please check the disclaimer before using these data.